Wednesday, January 17, 2018, 2:38 PM GMT
Back to Local

CYQI, Yarmouth, N. S.

Location: , , Canada Lat: 43.833
Local Time: 2:38 PM GMT (14:38 GMT) Lon: -66.083
Time Zone: GMT Elev: 141 ft

Show me the last for .
Show Coded

Time T Td Feel RH Dir Speed Gust Alt SLP Vis Weather Sky Remarks
2018-01-17 14:00 30 28 21 92 130° 12 - 30.38 30.39 2 -SN VV005 None
2018-01-17 13:00 30 28 23 92 130° 8 - 30.41 30.42 3 -SN VV004 None
2018-01-17 12:00 28 27 20 92 120° 8 - 30.41 30.42 4 -SN OVC004 None
2018-01-17 11:47 28 27 21 92 120° 7 - 30.40 30.41 3 -SN OVC004 None
2018-01-17 11:00 27 27 19 100 110° 7 - 30.42 30.43 2 -SN BKN005 OVC012 None
2018-01-17 10:54 27 27 19 100 110° 7 - 30.43 30.44 3 -SN SCT005 OVC012 None
2018-01-17 10:40 27 25 19 92 110° 7 - 30.43 30.44 3 -SN FEW005 OVC015 None
2018-01-17 10:07 27 25 20 92 110° 6 - 30.44 30.45 1 -SN VV012 FEW005 None
2018-01-17 10:00 27 25 20 92 110° 6 - 30.43 30.44 2 -SN VV020 BKN005 None
2018-01-17 09:48 27 23 18 86 110° 8 - 30.43 30.44 2 -SN VV020 FEW005 None
2018-01-17 09:44 25 23 17 92 110° 7 - 30.43 30.44 2 -SN VV019 None
2018-01-17 09:00 25 23 16 92 110° 8 - 30.43 30.44 3 -SN VV024 None
2018-01-17 08:32 27 21 20 79 120° 6 - 30.44 30.45 10 -SN OVC022 None
2018-01-17 08:00 27 21 19 79 120° 7 - 30.43 30.44 15 OVC020 None
2018-01-17 07:00 25 21 16 85 100° 8 - 30.43 30.44 15 OVC019 None
2018-01-17 06:00 25 21 18 85 100° 6 - 30.43 30.44 15 OVC018 None
2018-01-17 05:00 25 21 18 85 100° 6 - 30.44 30.45 15 OVC019 None
2018-01-17 04:00 27 23 23 86 90° 3 - 30.46 30.47 15 OVC020 None
2018-01-17 03:00 27 23 - 86 - Calm - 30.47 30.48 15 OVC020 None
2018-01-17 02:00 27 23 20 86 90° 6 - 30.46 30.47 15 OVC021 None
2018-01-17 01:00 30 23 25 74 310° 5 - 30.47 30.48 15 OVC020 None
2018-01-17 00:00 28 21 21 74 320° 7 - 30.48 30.49 15 BKN022 None
2018-01-16 23:00 27 21 19 79 300° 7 - 30.48 30.49 15 BKN020 None
2018-01-16 22:00 28 21 20 74 310° 8 - 30.46 30.47 15 OVC018 None
2018-01-16 21:00 28 21 20 74 320° 9 - 30.46 30.47 15 OVC020 None
2018-01-16 20:00 28 21 16 74 300° 13 18 30.46 30.47 15 OVC020 None
2018-01-16 19:00 28 21 17 74 310° 15 - 30.45 30.46 15 OVC021 None
2018-01-16 18:00 28 21 18 74 310° 13 - 30.42 30.44 15 OVC020 None
2018-01-16 17:00 28 21 18 74 310° 12 - 30.42 30.44 15 OVC021 None
2018-01-16 16:00 28 21 20 74 330° 9 - 30.45 30.46 15 OVC024 None
2018-01-16 15:10 28 25 15 86 330° 14 22 30.44 30.46 12 OVC013 None
2018-01-16 15:00 27 25 14 92 330° 17 - 30.44 30.46 1 -SHSN VV005 None
2018-01-16 14:39 28 25 15 86 340° 15 22 30.45 30.46 15 OVC017 None

Support USWX by starting your Amazon purchase here.